Poyntelle, Pennsylvania
Current Conditions -  °F | °C
As of 3:15 AM on Tuesday 27 Jan 2015 (Local Time) from KMSV Reporting Station
Broken Clouds Broken Clouds  
Wind Chill:   Ceiling: 4100
Heat Index: 19°   Visibility: 10mi
Dew Point: 12°   Wind: 9mph
Humidity: 74%   Direction: 340°NNW
Pressure: 29.68"   Gusts: NA
Location:  41.82°N, 75.42°W
Report Text: KMSV 270815Z AUTO 34008KT 10SM BKN041 M07/M11 A2968 RMK AO1
Loading
Personal Weather Stations






























Interactive Weather Map New forecast layout! Learn more

10-Day Weather Forecast

Advertisements
Track Severe Weather on mobile